createdAt,value
2023-01-31T00:00:01.071Z,72.70
2023-01-31T00:02:29.278Z,72.50
2023-01-31T00:04:57.494Z,72.30
2023-01-31T00:07:25.628Z,72.50
2023-01-31T00:09:53.845Z,71.60
2023-01-31T00:12:22.147Z,71.10
2023-01-31T00:14:50.330Z,71.50
2023-01-31T00:17:19.823Z,71.00
2023-01-31T00:19:47.931Z,71.20
2023-01-31T00:22:16.107Z,71.80
2023-01-31T00:24:44.201Z,71.90
2023-01-31T00:27:12.480Z,72.20
2023-01-31T00:29:40.934Z,72.00
2023-01-31T00:32:10.204Z,71.70
2023-01-31T00:34:39.803Z,71.50
2023-01-31T00:37:08.080Z,72.50
2023-01-31T00:39:36.394Z,71.90
2023-01-31T00:42:04.722Z,71.30
2023-01-31T00:44:32.816Z,71.70
2023-01-31T00:47:01.039Z,70.90
2023-01-31T00:49:29.252Z,70.70
2023-01-31T00:51:58.897Z,70.80
2023-01-31T00:54:27.291Z,73.50
2023-01-31T00:56:56.144Z,73.70
2023-01-31T00:59:24.430Z,73.60
2023-01-31T01:01:52.557Z,72.20
2023-01-31T01:04:20.725Z,72.00
2023-01-31T01:06:50.493Z,72.10
2023-01-31T01:09:20.293Z,72.20
2023-01-31T01:11:49.690Z,73.40
2023-01-31T01:14:17.971Z,73.20
2023-01-31T01:16:46.089Z,72.20
2023-01-31T01:19:17.837Z,72.70
2023-01-31T01:21:48.375Z,73.10
2023-01-31T01:24:20.276Z,73.30
2023-01-31T01:26:48.827Z,73.40
2023-01-31T01:29:17.055Z,72.40
2023-01-31T01:31:46.324Z,72.40
2023-01-31T01:34:16.176Z,72.10
2023-01-31T01:36:46.855Z,72.80
2023-01-31T01:39:18.158Z,73.10
2023-01-31T01:41:48.572Z,73.10
2023-01-31T01:44:48.296Z,74.50
2023-01-31T01:47:22.119Z,74.00
2023-01-31T01:49:55.959Z,73.90
2023-01-31T01:52:27.342Z,73.40
2023-01-31T01:54:59.708Z,73.60
2023-01-31T01:57:33.819Z,73.50
2023-01-31T02:00:10.531Z,74.00
2023-01-31T02:02:44.381Z,74.10
2023-01-31T02:05:16.907Z,74.00
2023-01-31T02:07:45.669Z,73.90
2023-01-31T02:10:21.595Z,73.40
2023-01-31T02:12:51.973Z,73.50
2023-01-31T02:15:20.604Z,74.20
2023-01-31T02:17:49.407Z,74.60
2023-01-31T02:20:59.443Z,76.30
2023-01-31T02:23:56.192Z,76.60
2023-01-31T02:27:00.090Z,76.70
2023-01-31T02:29:55.400Z,76.00
2023-01-31T02:36:25.697Z,75.70
2023-01-31T02:39:03.932Z,75.50
2023-01-31T02:41:44.952Z,75.70
2023-01-31T02:44:38.531Z,75.30
2023-01-31T02:47:15.870Z,74.00
2023-01-31T02:49:49.533Z,73.70
2023-01-31T02:52:29.264Z,73.10
2023-01-31T02:55:26.680Z,72.90
2023-01-31T02:57:58.200Z,73.00
2023-01-31T03:00:27.435Z,73.40
2023-01-31T03:02:56.412Z,73.90
2023-01-31T03:05:24.969Z,74.40
2023-01-31T03:07:57.771Z,77.40
2023-01-31T03:10:46.497Z,78.20
2023-01-31T03:13:36.695Z,79.40
2023-01-31T03:16:35.770Z,77.30
2023-01-31T03:19:13.970Z,75.70
2023-01-31T03:21:47.323Z,75.90
2023-01-31T03:24:20.347Z,74.80
2023-01-31T03:26:49.916Z,74.90
2023-01-31T03:29:18.697Z,74.00
2023-01-31T03:35:36.938Z,74.10
2023-01-31T03:38:12.250Z,74.20
2023-01-31T03:40:48.090Z,73.60
2023-01-31T03:43:22.885Z,74.80
2023-01-31T03:45:56.155Z,74.50
2023-01-31T03:48:30.195Z,74.60
2023-01-31T03:51:00.679Z,74.50
2023-01-31T03:53:33.769Z,74.80
2023-01-31T03:56:08.677Z,75.20
2023-01-31T03:58:42.867Z,75.40
2023-01-31T04:01:15.329Z,75.70
2023-01-31T04:03:47.327Z,76.30
2023-01-31T04:06:17.117Z,75.90
2023-01-31T04:08:45.613Z,75.70
2023-01-31T04:11:16.403Z,76.20
2023-01-31T04:13:44.718Z,75.30
2023-01-31T04:16:13.069Z,75.30
2023-01-31T04:18:41.621Z,74.90
2023-01-31T04:21:10.524Z,75.30
2023-01-31T04:23:38.833Z,74.70
2023-01-31T04:26:06.962Z,75.60
2023-01-31T04:28:36.697Z,75.30
2023-01-31T04:31:05.116Z,75.80
2023-01-31T04:33:33.374Z,75.20
2023-01-31T04:36:01.624Z,74.80
2023-01-31T04:38:29.729Z,75.80
2023-01-31T04:40:57.973Z,75.00
2023-01-31T04:43:26.073Z,74.80
2023-01-31T04:45:55.570Z,75.50
2023-01-31T04:48:23.788Z,74.50
2023-01-31T04:50:51.941Z,74.40
2023-01-31T04:53:22.224Z,74.20
2023-01-31T04:55:50.445Z,75.30
2023-01-31T04:58:18.780Z,76.20
2023-01-31T05:00:46.996Z,75.30
2023-01-31T05:03:16.824Z,74.30
2023-01-31T05:05:44.976Z,74.10
2023-01-31T05:08:13.180Z,74.40
2023-01-31T05:10:43.008Z,74.40
2023-01-31T05:13:11.628Z,73.90
2023-01-31T05:15:41.714Z,74.20
2023-01-31T05:18:10.641Z,74.50
2023-01-31T05:20:41.109Z,75.40
2023-01-31T05:23:09.703Z,75.10
2023-01-31T05:25:38.998Z,76.00
2023-01-31T05:28:07.147Z,76.00
2023-01-31T05:30:35.886Z,76.10
2023-01-31T05:33:04.751Z,76.00
2023-01-31T05:35:32.831Z,76.20
2023-01-31T05:38:02.419Z,76.00
2023-01-31T05:40:31.181Z,76.00
2023-01-31T05:43:01.640Z,76.00
2023-01-31T05:45:31.205Z,74.40
2023-01-31T05:48:00.225Z,73.60
2023-01-31T05:50:28.344Z,73.50
2023-01-31T05:53:00.943Z,74.50
2023-01-31T05:55:31.228Z,75.70
2023-01-31T05:58:01.409Z,76.60
2023-01-31T06:00:29.767Z,76.30
2023-01-31T06:03:00.022Z,75.40
2023-01-31T06:05:29.068Z,78.60
2023-01-31T06:07:57.290Z,78.00
2023-01-31T06:10:25.357Z,78.00
2023-01-31T06:12:54.808Z,78.60
2023-01-31T06:15:23.223Z,77.40
2023-01-31T06:17:51.440Z,79.00
2023-01-31T06:20:19.652Z,78.20
2023-01-31T06:22:47.751Z,77.50
2023-01-31T06:25:15.943Z,77.50
2023-01-31T06:27:44.276Z,78.70
2023-01-31T06:30:14.778Z,78.00
2023-01-31T06:32:43.095Z,77.50
2023-01-31T06:35:11.489Z,77.70
2023-01-31T06:37:39.694Z,77.60
2023-01-31T06:40:08.493Z,77.30
2023-01-31T06:42:36.589Z,78.90
2023-01-31T06:45:05.400Z,78.90
2023-01-31T06:47:34.902Z,78.30
2023-01-31T06:50:03.007Z,78.10
2023-01-31T06:52:31.476Z,78.10
2023-01-31T06:54:59.529Z,78.60
2023-01-31T06:57:27.670Z,78.10
2023-01-31T06:59:55.831Z,77.60
2023-01-31T07:02:24.057Z,76.60
2023-01-31T07:04:54.213Z,77.00
2023-01-31T07:07:22.379Z,76.90
2023-01-31T07:09:50.416Z,79.20
2023-01-31T07:12:18.464Z,79.90
2023-01-31T07:14:46.932Z,79.90
2023-01-31T07:17:15.012Z,79.30
2023-01-31T07:19:43.088Z,78.60
2023-01-31T07:22:12.486Z,78.40
2023-01-31T07:24:40.649Z,79.60
2023-01-31T07:27:08.770Z,79.60
2023-01-31T07:29:38.353Z,79.30
2023-01-31T07:32:06.708Z,78.30
2023-01-31T07:34:34.806Z,79.50
2023-01-31T07:37:02.939Z,80.50
2023-01-31T07:39:32.456Z,80.60
2023-01-31T07:42:00.566Z,79.80
2023-01-31T07:44:28.673Z,80.00
2023-01-31T07:46:56.762Z,80.10
2023-01-31T07:49:24.971Z,82.00
2023-01-31T07:51:53.293Z,80.70
2023-01-31T07:54:21.402Z,81.00
2023-01-31T07:56:50.901Z,80.90
2023-01-31T07:59:19.183Z,81.10
2023-01-31T08:02:07.659Z,82.60
2023-01-31T08:04:36.095Z,82.70
2023-01-31T08:07:06.793Z,83.00
2023-01-31T08:09:34.873Z,83.00
2023-01-31T08:12:04.620Z,82.80
2023-01-31T08:14:33.075Z,83.80
2023-01-31T08:17:01.288Z,83.90
2023-01-31T08:19:29.695Z,84.30
2023-01-31T08:21:57.850Z,85.40
2023-01-31T08:24:26.320Z,86.60
2023-01-31T08:26:54.516Z,86.40
2023-01-31T08:29:24.615Z,85.40
2023-01-31T08:31:53.086Z,85.10
2023-01-31T08:34:23.400Z,85.50
2023-01-31T08:36:51.696Z,85.80
2023-01-31T08:39:19.875Z,86.40
2023-01-31T08:41:48.105Z,87.00
2023-01-31T08:44:16.352Z,87.20
2023-01-31T08:46:46.705Z,87.50
2023-01-31T08:49:15.243Z,87.90
2023-01-31T08:51:43.296Z,88.30
2023-01-31T08:54:12.842Z,87.40
2023-01-31T08:56:41.033Z,87.30
2023-01-31T08:59:11.810Z,88.60
2023-01-31T09:01:42.391Z,88.40
2023-01-31T09:04:12.073Z,88.40
2023-01-31T09:06:40.261Z,88.70
2023-01-31T09:09:08.399Z,88.40
2023-01-31T09:11:36.961Z,88.00
2023-01-31T09:14:05.006Z,88.30
2023-01-31T09:16:33.638Z,88.60
2023-01-31T09:19:01.825Z,88.70
2023-01-31T09:21:31.503Z,88.10
2023-01-31T09:24:02.256Z,88.50
2023-01-31T09:26:31.173Z,88.20
2023-01-31T09:29:01.445Z,88.90
2023-01-31T09:31:30.414Z,88.60
2023-01-31T09:33:59.098Z,88.60
2023-01-31T09:36:28.487Z,88.50
2023-01-31T09:38:58.478Z,88.00
2023-01-31T09:41:33.518Z,87.50
2023-01-31T09:44:05.720Z,86.80
2023-01-31T09:46:38.273Z,86.70
2023-01-31T09:49:10.817Z,86.00
2023-01-31T09:51:40.129Z,86.60
2023-01-31T09:54:21.801Z,86.20
2023-01-31T09:57:01.957Z,85.00
2023-01-31T09:59:39.495Z,85.00
2023-01-31T10:02:18.755Z,85.20
2023-01-31T10:05:03.843Z,84.60
2023-01-31T10:07:36.127Z,84.00
2023-01-31T10:10:15.833Z,85.00
2023-01-31T10:12:48.625Z,85.60
2023-01-31T10:15:24.527Z,86.50
2023-01-31T10:17:57.110Z,85.90
2023-01-31T10:20:34.977Z,87.10
2023-01-31T10:23:08.275Z,87.60
2023-01-31T10:25:45.748Z,87.10
2023-01-31T10:28:17.439Z,87.10
2023-01-31T10:30:49.396Z,86.90
2023-01-31T10:33:26.121Z,88.10
2023-01-31T10:35:57.519Z,88.40
2023-01-31T10:38:30.467Z,89.30
2023-01-31T10:41:10.444Z,88.40
2023-01-31T10:43:41.009Z,89.30
2023-01-31T10:46:13.089Z,88.70
2023-01-31T10:48:45.900Z,88.30
2023-01-31T10:51:30.620Z,88.40
2023-01-31T10:54:17.328Z,88.50
2023-01-31T10:56:48.345Z,87.90
2023-01-31T10:59:24.599Z,87.80
2023-01-31T11:01:53.131Z,88.60
2023-01-31T11:04:26.703Z,87.30
2023-01-31T11:06:55.479Z,86.50
2023-01-31T11:09:25.423Z,86.80
2023-01-31T11:12:00.456Z,85.80
2023-01-31T11:14:29.988Z,85.50
2023-01-31T11:17:02.197Z,85.50
2023-01-31T11:19:38.488Z,84.40
2023-01-31T11:22:07.782Z,83.80
2023-01-31T11:24:41.290Z,83.50
2023-01-31T11:27:14.044Z,83.70
2023-01-31T11:29:47.157Z,82.70
2023-01-31T11:32:19.583Z,81.80
2023-01-31T11:34:58.153Z,82.30
2023-01-31T11:37:26.623Z,81.90
2023-01-31T11:39:59.348Z,82.10
2023-01-31T11:42:29.245Z,82.10
2023-01-31T11:45:02.321Z,81.80
2023-01-31T11:47:40.548Z,80.40
2023-01-31T11:50:20.101Z,80.10
2023-01-31T11:52:54.809Z,80.90
2023-01-31T11:55:23.157Z,80.60
2023-01-31T11:57:59.167Z,80.60
2023-01-31T12:00:29.683Z,79.50
2023-01-31T12:03:06.771Z,78.70
2023-01-31T12:05:40.133Z,76.40
2023-01-31T12:08:30.328Z,75.70
2023-01-31T12:10:59.118Z,75.70
2023-01-31T12:13:29.131Z,74.80
2023-01-31T12:16:01.273Z,73.10
2023-01-31T12:18:51.973Z,72.40
2023-01-31T12:21:34.899Z,71.70
2023-01-31T12:24:15.614Z,72.70
2023-01-31T12:26:49.737Z,72.30
2023-01-31T12:29:50.657Z,71.90
2023-01-31T12:32:30.191Z,73.90
2023-01-31T12:35:17.809Z,71.20
2023-01-31T12:37:56.399Z,71.10
2023-01-31T12:40:37.024Z,70.20
2023-01-31T12:43:10.623Z,69.70
2023-01-31T12:45:54.936Z,69.50
2023-01-31T12:48:44.888Z,69.10
2023-01-31T12:51:27.956Z,69.00
2023-01-31T12:54:06.044Z,68.60
2023-01-31T12:56:52.287Z,67.60
2023-01-31T12:59:33.321Z,67.50
2023-01-31T13:02:17.863Z,67.60
2023-01-31T13:04:51.059Z,67.80
2023-01-31T13:07:25.632Z,67.80
2023-01-31T13:09:56.266Z,67.60
2023-01-31T13:12:29.819Z,66.90
2023-01-31T13:15:04.677Z,65.90
2023-01-31T13:17:38.813Z,66.70
2023-01-31T13:20:29.239Z,66.70
2023-01-31T13:23:03.934Z,67.50
2023-01-31T13:25:38.803Z,68.00
2023-01-31T13:28:14.055Z,67.00
2023-01-31T13:30:46.098Z,67.50
2023-01-31T13:33:31.363Z,67.10
2023-01-31T13:36:08.211Z,67.20
2023-01-31T13:38:40.859Z,67.20
2023-01-31T13:41:13.877Z,66.40
2023-01-31T13:43:41.982Z,66.00
2023-01-31T13:46:12.799Z,65.90
2023-01-31T13:48:48.277Z,65.10
2023-01-31T13:51:21.109Z,66.00
2023-01-31T13:53:53.278Z,66.30
2023-01-31T13:56:26.091Z,65.60
2023-01-31T13:58:57.035Z,65.20
2023-01-31T14:01:27.856Z,64.30
2023-01-31T14:04:24.133Z,63.60
2023-01-31T14:07:11.698Z,62.70
2023-01-31T14:09:41.095Z,62.20
2023-01-31T14:12:34.112Z,62.20
2023-01-31T14:15:03.847Z,60.80
2023-01-31T14:18:01.916Z,61.30
2023-01-31T14:20:32.257Z,59.80
2023-01-31T14:23:33.220Z,59.50
2023-01-31T14:26:01.371Z,60.20
2023-01-31T14:28:29.587Z,60.90
2023-01-31T14:30:57.747Z,59.90
2023-01-31T14:33:28.451Z,59.30
2023-01-31T14:36:35.720Z,59.00
2023-01-31T14:39:48.008Z,58.60
2023-01-31T14:42:30.799Z,59.80
2023-01-31T14:45:15.549Z,58.20
2023-01-31T14:47:56.889Z,59.20
2023-01-31T14:50:45.344Z,57.50
2023-01-31T14:53:36.476Z,57.60
2023-01-31T14:56:27.794Z,58.10
2023-01-31T14:58:56.256Z,58.00
2023-01-31T15:01:34.714Z,58.10
2023-01-31T15:04:04.321Z,59.10
2023-01-31T15:06:37.773Z,59.10
2023-01-31T15:09:35.197Z,58.80
2023-01-31T15:12:07.884Z,58.80
2023-01-31T15:14:41.467Z,58.50
2023-01-31T15:17:31.642Z,58.70
2023-01-31T15:20:18.392Z,59.80
2023-01-31T15:22:48.082Z,58.70
2023-01-31T15:25:27.676Z,58.60
2023-01-31T15:27:57.838Z,58.40
2023-01-31T15:30:29.041Z,58.60
2023-01-31T15:33:00.477Z,57.90
2023-01-31T15:35:32.208Z,58.50
2023-01-31T15:38:04.990Z,58.90
2023-01-31T15:40:34.985Z,58.70
2023-01-31T15:43:23.108Z,58.60
2023-01-31T15:45:52.774Z,58.30
2023-01-31T15:48:22.563Z,59.00
2023-01-31T15:50:52.950Z,58.60
2023-01-31T15:53:23.785Z,58.90
2023-01-31T15:55:58.492Z,59.00
2023-01-31T15:58:29.124Z,58.70
2023-01-31T16:00:59.202Z,58.70
2023-01-31T16:03:28.971Z,59.90
2023-01-31T16:05:59.580Z,59.50
2023-01-31T16:08:31.298Z,59.50
2023-01-31T16:11:04.796Z,59.20
2023-01-31T16:13:35.016Z,58.80
2023-01-31T16:16:04.739Z,59.00
2023-01-31T16:18:33.515Z,59.30
2023-01-31T16:21:15.469Z,59.50
2023-01-31T16:23:44.300Z,59.00
2023-01-31T16:26:17.771Z,59.80
2023-01-31T16:28:48.612Z,60.70
2023-01-31T16:31:19.232Z,59.40
2023-01-31T16:33:50.385Z,58.90
2023-01-31T16:36:23.085Z,59.30
2023-01-31T16:38:59.051Z,58.90
2023-01-31T16:41:46.067Z,58.50
2023-01-31T16:44:18.468Z,58.60
2023-01-31T16:46:48.895Z,59.00
2023-01-31T16:49:22.933Z,59.10
2023-01-31T16:51:52.879Z,58.70
2023-01-31T16:54:24.089Z,58.90
2023-01-31T16:57:22.530Z,59.60
2023-01-31T16:59:52.317Z,60.10
2023-01-31T17:02:26.914Z,61.00
2023-01-31T17:04:57.510Z,61.00
2023-01-31T17:07:28.085Z,60.90
2023-01-31T17:09:58.423Z,61.00
2023-01-31T17:12:30.131Z,61.20
2023-01-31T17:15:02.483Z,61.20
2023-01-31T17:17:32.759Z,61.40
2023-01-31T17:20:01.198Z,61.20
2023-01-31T17:22:29.295Z,61.20
2023-01-31T17:24:57.475Z,60.70
2023-01-31T17:27:25.764Z,61.00
2023-01-31T17:29:55.430Z,61.20
2023-01-31T17:32:23.861Z,60.40
2023-01-31T17:34:52.144Z,60.60
2023-01-31T17:37:30.062Z,60.10
2023-01-31T17:39:59.870Z,60.50
2023-01-31T17:42:28.059Z,60.50
2023-01-31T17:44:57.689Z,60.30
2023-01-31T17:47:27.239Z,60.10
2023-01-31T17:49:57.262Z,60.50
2023-01-31T17:52:26.097Z,60.10
2023-01-31T17:54:54.284Z,60.40
2023-01-31T17:57:22.512Z,60.80
2023-01-31T17:59:50.645Z,60.30
2023-01-31T18:02:20.210Z,61.00
2023-01-31T18:04:48.321Z,61.20
2023-01-31T18:07:17.040Z,62.00
2023-01-31T18:09:45.691Z,61.70
2023-01-31T18:12:13.883Z,61.30
2023-01-31T18:14:42.150Z,61.30
2023-01-31T18:17:10.320Z,61.40
2023-01-31T18:19:40.344Z,61.80
2023-01-31T18:22:08.874Z,61.60
2023-01-31T18:24:37.168Z,62.30
2023-01-31T18:27:05.552Z,62.40
2023-01-31T18:29:33.873Z,61.80
2023-01-31T18:32:03.373Z,62.20
2023-01-31T18:34:33.257Z,61.60
2023-01-31T18:37:05.668Z,61.60
2023-01-31T18:39:34.401Z,62.10
2023-01-31T18:42:03.142Z,61.60
2023-01-31T18:44:31.364Z,61.60
2023-01-31T18:46:59.768Z,61.40
2023-01-31T18:49:28.040Z,61.70
2023-01-31T18:51:56.146Z,61.40
2023-01-31T18:54:25.985Z,61.70
2023-01-31T18:56:54.327Z,61.70
2023-01-31T18:59:22.829Z,61.30
2023-01-31T19:01:52.669Z,61.20
2023-01-31T19:04:21.263Z,60.40
2023-01-31T19:06:51.393Z,61.30
2023-01-31T19:09:19.687Z,61.70
2023-01-31T19:11:49.307Z,61.20
2023-01-31T19:14:17.518Z,61.00
2023-01-31T19:16:46.020Z,60.90
2023-01-31T19:19:14.313Z,60.60
2023-01-31T19:21:42.835Z,60.70
2023-01-31T19:24:13.622Z,60.80
2023-01-31T19:26:42.144Z,60.80
2023-01-31T19:29:15.281Z,60.60
2023-01-31T19:31:43.839Z,60.50
2023-01-31T19:34:12.086Z,60.60
2023-01-31T19:36:44.718Z,60.90
2023-01-31T19:39:14.084Z,60.50
2023-01-31T19:41:43.477Z,60.40
2023-01-31T19:44:13.154Z,60.60
2023-01-31T19:46:43.445Z,60.60
2023-01-31T19:49:11.763Z,60.40
2023-01-31T19:51:41.287Z,60.50
2023-01-31T19:54:13.877Z,60.50
2023-01-31T19:56:42.053Z,59.80
2023-01-31T19:59:11.808Z,60.50
2023-01-31T20:01:41.376Z,60.10
2023-01-31T20:04:09.551Z,60.00
2023-01-31T20:06:37.721Z,59.80
2023-01-31T20:09:07.429Z,59.60
2023-01-31T20:11:36.874Z,59.90
2023-01-31T20:14:06.536Z,59.50
2023-01-31T20:16:34.966Z,59.80
2023-01-31T20:19:06.713Z,60.20
2023-01-31T20:21:35.056Z,59.60
2023-01-31T20:24:03.539Z,59.60
2023-01-31T20:26:31.905Z,59.70
2023-01-31T20:29:00.313Z,59.90
2023-01-31T20:31:28.640Z,60.10
2023-01-31T20:33:56.800Z,60.50
2023-01-31T20:36:26.380Z,60.70
2023-01-31T20:38:54.823Z,61.00
2023-01-31T20:41:23.224Z,61.10
2023-01-31T20:43:51.559Z,61.20
2023-01-31T20:46:19.908Z,61.20
2023-01-31T20:48:48.800Z,61.00
2023-01-31T20:51:17.063Z,60.60
2023-01-31T20:53:46.650Z,61.00
2023-01-31T20:56:15.346Z,61.40
2023-01-31T20:58:44.507Z,61.30
2023-01-31T21:01:13.522Z,62.10
2023-01-31T21:03:42.018Z,62.80
2023-01-31T21:06:10.645Z,63.70
2023-01-31T21:08:40.282Z,64.70
2023-01-31T21:11:12.551Z,65.90
2023-01-31T21:13:43.584Z,66.80
2023-01-31T21:16:15.460Z,66.80
2023-01-31T21:18:44.533Z,67.40
2023-01-31T21:21:14.913Z,68.30
2023-01-31T21:23:43.462Z,68.10
2023-01-31T21:26:13.807Z,68.90
2023-01-31T21:28:43.770Z,69.50
2023-01-31T21:31:17.137Z,69.80
2023-01-31T21:33:46.297Z,69.70
2023-01-31T21:36:17.051Z,69.60
2023-01-31T21:38:45.855Z,69.60
2023-01-31T21:41:34.359Z,69.60
2023-01-31T21:44:02.817Z,69.80
2023-01-31T21:46:31.123Z,71.80
2023-01-31T21:49:00.697Z,72.10
2023-01-31T21:51:29.254Z,72.60
2023-01-31T21:53:57.437Z,72.80
2023-01-31T21:56:29.796Z,72.90
2023-01-31T21:58:59.072Z,73.00
2023-01-31T22:01:29.692Z,74.80
2023-01-31T22:03:59.161Z,74.40
2023-01-31T22:06:31.523Z,74.80
2023-01-31T22:09:01.459Z,74.50
2023-01-31T22:11:33.433Z,74.80
2023-01-31T22:14:02.887Z,74.20
2023-01-31T22:16:31.071Z,74.10
2023-01-31T22:18:59.878Z,73.50
2023-01-31T22:21:29.984Z,74.00
2023-01-31T22:24:00.488Z,74.40
2023-01-31T22:26:31.776Z,74.10
2023-01-31T22:29:02.450Z,73.80
2023-01-31T22:31:31.428Z,73.60
2023-01-31T22:34:00.375Z,73.10
2023-01-31T22:36:28.983Z,73.00
2023-01-31T22:38:57.226Z,72.80
2023-01-31T22:41:25.333Z,72.60
2023-01-31T22:43:55.993Z,73.40
2023-01-31T22:46:26.099Z,73.50
2023-01-31T22:48:55.402Z,73.00
2023-01-31T22:51:25.875Z,73.50
2023-01-31T22:53:54.690Z,72.90
2023-01-31T22:56:24.783Z,73.40
2023-01-31T22:58:58.915Z,73.10
2023-01-31T23:01:29.227Z,73.20
2023-01-31T23:03:58.886Z,73.10
2023-01-31T23:06:27.848Z,73.60
2023-01-31T23:08:56.759Z,73.80
2023-01-31T23:11:25.486Z,74.20
2023-01-31T23:13:54.043Z,74.50
2023-01-31T23:16:45.909Z,74.10
2023-01-31T23:19:14.812Z,74.60
2023-01-31T23:21:44.357Z,74.40
2023-01-31T23:24:14.412Z,74.90
2023-01-31T23:26:42.755Z,74.60
2023-01-31T23:29:11.118Z,74.50
2023-01-31T23:31:41.127Z,75.50
2023-01-31T23:34:09.432Z,76.30
2023-01-31T23:36:38.268Z,76.70
2023-01-31T23:39:06.754Z,76.20
2023-01-31T23:41:34.875Z,78.00
2023-01-31T23:44:03.714Z,78.70
2023-01-31T23:46:32.016Z,78.40
2023-01-31T23:49:01.866Z,78.00
2023-01-31T23:51:31.332Z,78.60
2023-01-31T23:53:59.677Z,78.30
2023-01-31T23:56:27.917Z,79.00
2023-01-31T23:58:56.318Z,78.10
